^^
Datos históricos de la estación: Murcia-Puente Tocinos
Diario Informe para Febrero 1, 2019 Unidades:  Métrico    Ingés   Ambas
Diario Semanal Mensual Anual
  Máxima: Mínima: Promedio:
Temperatura: 18.8 °C 12.7 °C 15 °C
Punto de rocio: 13.8 °C 10.8 °C 12.2 °C
Humedad: 96% 64.4% 84%
Velocidad viento: 18.4km/h 0km/h 6km/h
Racha viento: 32.2km/h - -
Viento- - SE
Presión: 1015.8 hPa 1011.1 hPa -
Precipitación: 3.2 mm    
 
 
Tabla de datos para Febrero 1, 2019
Hora Temperatura Punto de rocio Presión Viento Velocidad viento Racha viento Humedad Intensidad lluvia(por hora) Nubes
00:04 13.4 °C 12.3 °C 1011.2 hPa SSO 3.2 km/h 9.5 km/h 93% 0.0 mm
00:09 13.4 °C 12.3 °C 1011.2 hPa SSO 4.4 km/h 11.1 km/h 93% 0.0 mm
00:14 13.4 °C 12.3 °C 1011.2 hPa SSO 5.8 km/h 11.3 km/h 93% 0.0 mm
00:19 13.4 °C 12.3 °C 1011.3 hPa SSO 6.1 km/h 11.3 km/h 93% 0.0 mm
00:24 13.4 °C 12.3 °C 1011.3 hPa SSO 6.5 km/h 8 km/h 93% 0.0 mm
00:29 13.4 °C 12.3 °C 1011.3 hPa SSO 5.7 km/h 8 km/h 93% 0.0 mm
00:34 13.5 °C 12.3 °C 1011.3 hPa SSO 4.7 km/h 8 km/h 93% 0.0 mm
00:39 13.5 °C 12.4 °C 1011.2 hPa SSO 4.7 km/h 8 km/h 93% 0.0 mm
00:44 13.5 °C 12.4 °C 1011.2 hPa SSO 4.7 km/h 8 km/h 93% 0.0 mm
00:49 13.5 °C 12.4 °C 1011.2 hPa SSO 3.9 km/h 6.4 km/h 93% 0.0 mm
00:54 13.6 °C 12.5 °C 1011.2 hPa SSO 2.9 km/h 6.4 km/h 93% 0.0 mm
00:59 13.6 °C 12.4 °C 1011.2 hPa SSO 3.4 km/h 8 km/h 92.3% 0.0 mm
01:04 13.6 °C 12.5 °C 1011.2 hPa SSO 3.9 km/h 8 km/h 93% 0.0 mm
01:09 13.6 °C 12.5 °C 1011.2 hPa SSO 3.6 km/h 6.4 km/h 93% 0.0 mm
01:14 13.6 °C 12.5 °C 1011.2 hPa SSO 3.2 km/h 3.2 km/h 93% 0.0 mm
01:19 13.6 °C 12.5 °C 1011.2 hPa SSO 1.8 km/h   93% 0.0 mm
01:24 13.6 °C 12.5 °C 1011.1 hPa Calm     93% 0.0 mm
01:29 13.6 °C 12.5 °C 1011.1 hPa Calm   4.7 km/h 93% 0.0 mm
01:34 13.6 °C 12.5 °C 1011.2 hPa Calm   5 km/h 93% 0.0 mm
01:39 13.6 °C 12.5 °C 1011.2 hPa SSO 1 km/h 4.8 km/h 93% 0.0 mm
01:44 13.6 °C 12.5 °C 1011.2 hPa SSO 2.2 km/h 5.8 km/h 93% 0.0 mm
01:49 13.6 °C 12.5 °C 1011.2 hPa SSO 2.7 km/h 6.4 km/h 93% 0.0 mm
01:54 13.6 °C 12.7 °C 1011.2 hPa SSO 3.2 km/h 7.4 km/h 94% 0.0 mm
01:59 13.6 °C 12.6 °C 1011.2 hPa SSO 3.2 km/h 8 km/h 94% 0.0 mm
02:04 13.5 °C 12.6 °C 1011.3 hPa SSO 3.2 km/h 5.6 km/h 94% 0.0 mm
02:09 13.5 °C 12.6 °C 1011.3 hPa SSO 2.8 km/h 5.6 km/h 94% 0.0 mm
02:14 13.5 °C 12.6 °C 1011.3 hPa SSO 2.2 km/h 5.6 km/h 94% 0.0 mm
02:19 13.5 °C 12.5 °C 1011.3 hPa SSO 2.2 km/h 4.8 km/h 94% 0.0 mm
02:24 13.5 °C 12.5 °C 1011.3 hPa SSO 2.2 km/h 4.8 km/h 94% 0.0 mm
02:29 13.5 °C 12.6 °C 1011.3 hPa SSO 1.2 km/h 3.7 km/h 94% 0.0 mm
02:34 13.5 °C 12.5 °C 1011.3 hPa Calm   3.2 km/h 94% 0.0 mm
02:39 13.5 °C 12.5 °C 1011.3 hPa Calm     94% 0.0 mm
02:44 13.5 °C 12.6 °C 1011.3 hPa Calm   7.4 km/h 94% 0.0 mm
02:49 13.5 °C 12.5 °C 1011.4 hPa Oeste 1 km/h 8 km/h 94% 0.0 mm
02:54 13.4 °C 12.5 °C 1011.4 hPa Oeste 2.2 km/h 4.8 km/h 94% 0.0 mm
02:59 13.4 °C 12.4 °C 1011.4 hPa Oeste 2.2 km/h 5.8 km/h 94% 0.0 mm
03:04 13.4 °C 12.4 °C 1011.4 hPa Oeste 2.2 km/h 6.4 km/h 94% 0.0 mm
03:09 13.4 °C 12.5 °C 1011.4 hPa Oeste 2.7 km/h 6.4 km/h 94% 0.0 mm
03:14 13.4 °C 12.4 °C 1011.4 hPa Oeste 3.2 km/h 6.4 km/h 94% 0.0 mm
03:19 13.4 °C 12.4 °C 1011.5 hPa ONO 2.8 km/h 8.4 km/h 94% 0.0 mm
03:24 13.4 °C 12.4 °C 1011.5 hPa NE 2.2 km/h 10 km/h 94% 0.0 mm
03:29 13.3 °C 12.3 °C 1011.5 hPa Este 3.5 km/h 9.7 km/h 94% 0.0 mm
03:34 13.3 °C 12.3 °C 1011.5 hPa Este 5 km/h 9.7 km/h 94% 0.0 mm
03:39 13.2 °C 12.3 °C 1011.5 hPa ENE 5 km/h 13 km/h 94% 0.0 mm
03:44 13.1 °C 12.2 °C 1011.5 hPa NE 5 km/h 14.8 km/h 94% 0.3 mm
03:49 13 °C 12.1 °C 1011.5 hPa NE 6.4 km/h 14.5 km/h 94% 0.3 mm
03:54 12.9 °C 12 °C 1011.4 hPa NE 8.4 km/h 10 km/h 94% 0.3 mm
03:59 12.8 °C 11.8 °C 1011.4 hPa NE 7.4 km/h 10 km/h 94% 0.3 mm
04:04 12.8 °C 11.8 °C 1011.4 hPa NE 6.5 km/h 9.7 km/h 94% 0.8 mm
04:09 12.7 °C 11.9 °C 1011.3 hPa NE 5.8 km/h 9.7 km/h 94.8% 0.8 mm
04:14 12.7 °C 11.9 °C 1011.3 hPa NE 5 km/h 6.4 km/h 95% 0.8 mm
04:19 12.7 °C 11.9 °C 1011.3 hPa NE 4.2 km/h 5 km/h 95% 0.8 mm
04:24 12.7 °C 11.9 °C 1011.3 hPa NE 3.2 km/h 5.6 km/h 95% 0.8 mm
04:29 12.7 °C 11.9 °C 1011.3 hPa NE 3.1 km/h 4.8 km/h 95% 0.8 mm
04:34 12.7 °C 11.9 °C 1011.4 hPa NE 2.9 km/h 5.8 km/h 95% 0.8 mm
04:39 12.8 °C 12 °C 1011.4 hPa NE 3 km/h 7.4 km/h 95% 0.8 mm
04:44 12.8 °C 12 °C 1011.4 hPa NE 3.2 km/h 8 km/h 95% 0.8 mm
04:49 12.7 °C 12 °C 1011.4 hPa SE 3.9 km/h 8 km/h 95.3% 0.5 mm
04:54 12.7 °C 12.1 °C 1011.4 hPa SSE 4.7 km/h 8 km/h 96% 0.5 mm
04:59 12.7 °C 12.1 °C 1011.4 hPa SSE 4.8 km/h 9.5 km/h 96% 0.5 mm
05:04 12.7 °C 12.1 °C 1011.4 hPa SSE 5 km/h 9.7 km/h 96% 0.0 mm
05:09 12.7 °C 12.1 °C 1011.3 hPa Sur 5.3 km/h 9.7 km/h 96% 0.0 mm
05:14 12.7 °C 12.1 °C 1011.3 hPa Sur 5.8 km/h 8 km/h 96% 0.0 mm
05:19 12.7 °C 12.1 °C 1011.4 hPa Sur 5.3 km/h 8 km/h 96% 0.0 mm
05:24 12.7 °C 12.1 °C 1011.4 hPa Sur 4.7 km/h 8 km/h 96% 0.0 mm
05:29 12.7 °C 12.1 °C 1011.4 hPa Sur 4.7 km/h 8 km/h 96% 0.0 mm
05:34 12.7 °C 12.1 °C 1011.4 hPa Sur 4.7 km/h 8 km/h 96% 0.0 mm
05:39 12.7 °C 12.1 °C 1011.3 hPa Sur 3.8 km/h 8 km/h 96% 0.0 mm
05:44 12.7 °C 12.1 °C 1011.3 hPa Sur 2.9 km/h 5.8 km/h 96% 0.0 mm
05:49 12.7 °C 12.1 °C 1011.3 hPa Sur 3 km/h 7.4 km/h 96% 0.0 mm
05:54 12.7 °C 12.1 °C 1011.3 hPa Sur 3.2 km/h 8 km/h 96% 0.0 mm
05:59 12.7 °C 12.1 °C 1011.3 hPa Sur 1.6 km/h 3.2 km/h 96% 0.0 mm
06:04 12.7 °C 12.1 °C 1011.3 hPa Calm   4.7 km/h 96% 0.0 mm
06:09 12.8 °C 12.1 °C 1011.2 hPa Sur 1 km/h 4.8 km/h 96% 0.0 mm
06:14 12.8 °C 12.2 °C 1011.2 hPa Sur 2.2 km/h 4.7 km/h 96% 0.0 mm
06:19 12.8 °C 12.2 °C 1011.2 hPa Sur 2.2 km/h 5 km/h 96% 0.0 mm
06:24 12.8 °C 12.2 °C 1011.2 hPa Sur 2.2 km/h 6.4 km/h 96% 0.0 mm
06:29 12.8 °C 12.2 °C 1011.2 hPa Sur 3 km/h 7.4 km/h 96% 0.0 mm
06:34 12.8 °C 12.2 °C 1011.4 hPa Sur 3.9 km/h 8 km/h 96% 0.0 mm
06:39 12.8 °C 12.2 °C 1011.4 hPa Sur 3.9 km/h 8 km/h 96% 0.0 mm
06:44 12.8 °C 12.2 °C 1011.4 hPa Sur 3.9 km/h 8.4 km/h 96% 0.0 mm
06:49 12.8 °C 12.2 °C 1011.4 hPa Sur 4.3 km/h 8.4 km/h 96% 0.0 mm
06:54 12.8 °C 12.2 °C 1011.4 hPa SSO 5 km/h 8.4 km/h 96% 0.0 mm
06:59 12.8 °C 12.2 °C 1011.4 hPa SO 5 km/h 8 km/h 96% 0.0 mm
07:04 12.8 °C 12.2 °C 1011.5 hPa SO 5 km/h 8 km/h 96% 0.0 mm
07:09 12.8 °C 12.2 °C 1011.5 hPa SO 4.5 km/h 8 km/h 96% 0.0 mm
07:14 12.8 °C 12.1 °C 1011.5 hPa SO 3.9 km/h 4.8 km/h 96% 0.0 mm
07:19 12.8 °C 12.2 °C 1011.5 hPa SO 2.2 km/h 3.7 km/h 96% 0.0 mm
07:24 12.8 °C 12.2 °C 1011.5 hPa Calm   3.2 km/h 96% 0.0 mm
07:29 12.8 °C 12.2 °C 1011.5 hPa Calm   1.6 km/h 96% 0.0 mm
07:34 12.8 °C 12.2 °C 1011.6 hPa Calm     96% 0.0 mm
07:39 12.8 °C 12.2 °C 1011.6 hPa Calm     96% 0.0 mm
07:44 12.8 °C 12.2 °C 1011.6 hPa Calm   5.8 km/h 96% 0.0 mm
07:49 12.9 °C 12.3 °C 1011.8 hPa SO 1 km/h 6.4 km/h 96% 0.0 mm
07:54 12.9 °C 12.3 °C 1011.8 hPa SO 2.2 km/h 4.8 km/h 96% 0.0 mm
07:59 12.9 °C 12.3 °C 1011.8 hPa SO 1.1 km/h 3.7 km/h 96% 0.0 mm
08:04 12.9 °C 12.3 °C 1011.8 hPa Calm   1.6 km/h 96% 0.0 mm
08:09 12.9 °C 12.3 °C 1011.7 hPa Calm   3.7 km/h 96% 0.0 mm
08:14 12.9 °C 12.3 °C 1011.7 hPa Calm   3.7 km/h 96% 0.0 mm
08:19 12.9 °C 12.3 °C 1011.8 hPa SO 0.9 km/h 5.6 km/h 96% 0.0 mm
08:24 12.9 °C 12.3 °C 1011.8 hPa SO 2.2 km/h 4.8 km/h 96% 0.0 mm
08:29 12.9 °C 12.3 °C 1011.8 hPa SO 1.2 km/h 3.2 km/h 96% 0.0 mm
08:34 12.9 °C 12.3 °C 1012.0 hPa Calm   2.3 km/h 96% 0.0 mm
08:39 13 °C 12.4 °C 1012.0 hPa Calm   3.7 km/h 96% 0.0 mm
08:44 13 °C 12.4 °C 1012.0 hPa Calm   3.2 km/h 96% 0.0 mm
08:49 13.1 °C 12.5 °C 1012.1 hPa Calm   3.7 km/h 96% 0.0 mm
08:54 13.1 °C 12.5 °C 1012.1 hPa Calm   3.7 km/h 96% 0.0 mm
08:59 13.1 °C 12.5 °C 1012.1 hPa Calm   3.7 km/h 96% 0.0 mm
09:04 13.2 °C 12.5 °C 1012.3 hPa Calm   3.2 km/h 96% 0.0 mm
09:09 13.2 °C 12.6 °C 1012.3 hPa Calm     96% 0.0 mm
09:14 13.2 °C 12.6 °C 1012.3 hPa Calm     96% 0.0 mm
09:19 13.3 °C 12.7 °C 1012.5 hPa Calm   4.7 km/h 96% 0.0 mm
09:24 13.3 °C 12.7 °C 1012.5 hPa Calm   4.8 km/h 96% 0.0 mm
09:29 13.3 °C 12.7 °C 1012.5 hPa SO 1 km/h 5.6 km/h 96% 0.0 mm
09:34 13.4 °C 12.8 °C 1012.7 hPa SO 2.2 km/h 4.8 km/h 96% 0.0 mm
09:39 13.4 °C 12.8 °C 1012.7 hPa SSO 2.2 km/h 9.5 km/h 96% 0.0 mm
09:44 13.4 °C 12.8 °C 1012.7 hPa SSO 2.2 km/h 9.7 km/h 96% 0.0 mm
09:49 13.4 °C 12.6 °C 1012.9 hPa SO 3.8 km/h 11.1 km/h 95% 0.0 mm
09:54 13.4 °C 12.6 °C 1012.9 hPa SSO 5.8 km/h 11.3 km/h 94.7% 0.0 mm
09:59 13.6 °C 12.7 °C 1012.9 hPa SO 6.1 km/h 11.3 km/h 94% 0.0 mm
10:04 13.7 °C 12.6 °C 1012.9 hPa OSO 6.5 km/h 10.3 km/h 93% 0.0 mm
10:09 13.8 °C 12.5 °C 1012.9 hPa OSO 6.5 km/h 11.3 km/h 92.2% 0.0 mm
10:14 13.8 °C 12.4 °C 1012.9 hPa OSO 6.5 km/h 11.3 km/h 91.1% 0.0 mm
10:19 13.9 °C 12.5 °C 1013.0 hPa OSO 5.3 km/h 9.7 km/h 91% 0.0 mm
10:24 14.1 °C 12.5 °C 1013.0 hPa OSO 3.9 km/h 8 km/h 90.2% 0.0 mm
10:29 14.2 °C 12.4 °C 1013.0 hPa Oeste 4.2 km/h 8 km/h 89% 0.0 mm
10:34 14.3 °C 12.4 °C 1013.2 hPa Oeste 4.7 km/h 8 km/h 88.6% 0.0 mm
10:39 14.4 °C 12.5 °C 1013.2 hPa Oeste 4 km/h 8 km/h 88% 0.0 mm
10:44 14.6 °C 12.6 °C 1013.2 hPa Oeste 3.2 km/h 6.4 km/h 87.7% 0.0 mm
10:49 14.7 °C 12.5 °C 1013.2 hPa Oeste 2.8 km/h 8 km/h 86.6% 0.0 mm
10:54 14.8 °C 12.5 °C 1013.2 hPa Oeste 2.2 km/h 4.8 km/h 86% 0.0 mm
10:59 14.9 °C 12.4 °C 1013.2 hPa Oeste 1.1 km/h 7.4 km/h 84.8% 0.0 mm
11:04 15 °C 12.1 °C 1013.4 hPa Calm   8 km/h 83% 0.0 mm
11:09 15.1 °C 12.2 °C 1013.4 hPa Sur 1.7 km/h 9.5 km/h 82.4% 0.0 mm
11:14 15.2 °C 12.2 °C 1013.4 hPa SSO 3.9 km/h 10 km/h 82% 0.0 mm
11:19 15.4 °C 12.5 °C 1013.6 hPa SSO 4.4 km/h 9.7 km/h 82.8% 0.0 mm
11:24 15.6 °C 12.6 °C 1013.6 hPa Sur 5 km/h 11.1 km/h 82.5% 0.0 mm
11:29 15.5 °C 12.5 °C 1013.6 hPa Sur 5.3 km/h 11.3 km/h 82% 0.0 mm
11:34 15.6 °C 12.6 °C 1013.7 hPa SE 5.8 km/h 9.7 km/h 82.2% 0.0 mm
11:39 15.7 °C 12.6 °C 1013.7 hPa SSO 5.3 km/h 9.7 km/h 82.3% 0.0 mm
11:44 15.7 °C 12.5 °C 1013.7 hPa SSE 4.7 km/h 13 km/h 81.4% 0.0 mm
11:49 15.8 °C 12.6 °C 1013.8 hPa Sur 5.6 km/h 12.9 km/h 80.9% 0.0 mm
11:54 15.9 °C 12.5 °C 1013.8 hPa OSO 6.9 km/h 11.3 km/h 80% 0.0 mm
11:59 16.1 °C 12.5 °C 1013.8 hPa SSE 5.9 km/h 11.3 km/h 79.4% 0.0 mm
12:04 16.2 °C 12.4 °C 1013.9 hPa SO 5 km/h 9.7 km/h 78.3% 0.0 mm
12:09 16.3 °C 12.4 °C 1013.9 hPa SSO 4.8 km/h 9.7 km/h 78% 0.0 mm
12:14 16.4 °C 12.4 °C 1013.9 hPa Sur 4.7 km/h 8 km/h 77.1% 0.0 mm
12:19 16.4 °C 12.2 °C 1014.0 hPa SE 4.3 km/h 8.4 km/h 76% 0.0 mm
12:24 16.4 °C 12.2 °C 1014.0 hPa SE 3.9 km/h 9.3 km/h 76.2% 0.0 mm
12:29 16.4 °C 12.2 °C 1014.0 hPa Sur 4.3 km/h 11.1 km/h 76.1% 0.0 mm
12:34 16.4 °C 12.2 °C 1014.0 hPa SSE 5 km/h 13 km/h 76% 0.0 mm
12:39 16.4 °C 12.3 °C 1014.0 hPa SE 6.1 km/h 12.9 km/h 76.7% 0.0 mm
12:44 16.4 °C 12.3 °C 1014.0 hPa SE 7.6 km/h 11.3 km/h 76.7% 0.0 mm
12:49 16.5 °C 12.3 °C 1014.0 hPa SE 7.1 km/h 11.3 km/h 76.7% 0.0 mm
12:54 16.6 °C 12.5 °C 1013.8 hPa ESE 6.5 km/h 11.3 km/h 76.8% 0.0 mm
12:59 16.6 °C 12.3 °C 1013.8 hPa ESE 6.7 km/h 11.9 km/h 76% 0.0 mm
13:04 16.6 °C 12.3 °C 1013.8 hPa Este 6.9 km/h 11.3 km/h 76% 0.0 mm
13:09 16.7 °C 12.4 °C 1013.8 hPa ESE 6.1 km/h 11.1 km/h 75.9% 0.0 mm
13:14 16.8 °C 12.3 °C 1013.8 hPa ESE 5 km/h 12.2 km/h 74.8% 0.0 mm
13:19 16.8 °C 12.4 °C 1013.8 hPa ENE 5.6 km/h 13 km/h 75.2% 0.0 mm
13:24 16.9 °C 12.4 °C 1013.7 hPa Este 6.5 km/h 13 km/h 74.8% 0.0 mm
13:29 17.1 °C 12.6 °C 1013.7 hPa NE 6.5 km/h 13.7 km/h 74.7% 0.0 mm
13:34 17.3 °C 12.5 °C 1013.7 hPa ESE 6.5 km/h 14.5 km/h 73.8% 0.0 mm
13:39 17.6 °C 12.8 °C 1013.6 hPa NE 6.2 km/h 16.1 km/h 73.7% 0.0 mm
13:44 17.7 °C 12.4 °C 1013.6 hPa NE 5.8 km/h 16.7 km/h 71.2% 0.0 mm
13:49 17.4 °C 12.3 °C 1013.6 hPa NE 6.3 km/h 16.7 km/h 72% 0.0 mm
13:54 17.4 °C 12.4 °C 1013.4 hPa NE 6.9 km/h 16.1 km/h 72.5% 0.0 mm
13:59 17.7 °C 12.4 °C 1013.4 hPa NE 6.9 km/h 13 km/h 71.3% 0.0 mm
14:04 17.7 °C 12.4 °C 1013.4 hPa NE 6.9 km/h 18.5 km/h 71% 0.0 mm
14:09 17.8 °C 12.1 °C 1013.3 hPa NE 7.7 km/h 19.3 km/h 69.4% 0.0 mm
14:14 17.7 °C 12.1 °C 1013.3 hPa NNE 8.7 km/h 16.1 km/h 69.4% 0.0 mm
14:19 17.8 °C 11.8 °C 1013.3 hPa ENE 8.7 km/h 13 km/h 67.9% 0.0 mm
14:24 17.9 °C 11.5 °C 1013.1 hPa Este 8.7 km/h 14.8 km/h 66.1% 0.0 mm
14:29 18.2 °C 11.4 °C 1013.1 hPa NE 7.5 km/h 17.2 km/h 64.7% 0.0 mm
14:34 18.3 °C 11.5 °C 1013.1 hPa NE 5.8 km/h 18.3 km/h 64.6% 0.0 mm
14:39 18.3 °C 11.8 °C 1013.0 hPa NE 6.3 km/h 19.3 km/h 65.8% 0.0 mm
14:44 18.4 °C 11.7 °C 1013.0 hPa Este 6.9 km/h 15.6 km/h 65% 0.0 mm
14:49 18.6 °C 11.7 °C 1013.0 hPa ENE 7.2 km/h 16.1 km/h 64.4% 0.0 mm
14:54 18.6 °C 11.8 °C 1012.9 hPa ENE 7.6 km/h 16.7 km/h 64.6% 0.0 mm
14:59 18.6 °C 11.9 °C 1012.9 hPa ENE 8.1 km/h 16.7 km/h 65% 0.0 mm
15:04 18.5 °C 11.9 °C 1012.9 hPa ENE 8.7 km/h 16.1 km/h 65.4% 0.0 mm
15:09 18.5 °C 12.4 °C 1012.8 hPa NE 8.2 km/h 14.8 km/h 67.4% 0.0 mm
15:14 18.7 °C 12.4 °C 1012.8 hPa ESE 7.6 km/h 23.3 km/h 66.8% 0.0 mm
15:19 18.8 °C 12.4 °C 1012.8 hPa ESE 8.4 km/h 24.1 km/h 66.5% 0.0 mm
15:24 18.7 °C 12.4 °C 1012.7 hPa ENE 9.5 km/h 20.9 km/h 66.9% 0.0 mm
15:29 18.7 °C 12.3 °C 1012.7 hPa NE 9.7 km/h 18.5 km/h 66.6% 0.0 mm
15:34 18.7 °C 12.3 °C 1012.7 hPa Este 10 km/h 19.3 km/h 66.6% 0.0 mm
15:39 18.7 °C 12.2 °C 1012.5 hPa ESE 10.1 km/h 22.2 km/h 66% 0.0 mm
15:44 18.5 °C 12 °C 1012.5 hPa ENE 10.3 km/h 22.5 km/h 65.9% 0.0 mm
15:49 18.3 °C 12.1 °C 1012.5 hPa ENE 10.7 km/h 22.5 km/h 67.1% 0.0 mm
15:54 18.2 °C 12.2 °C 1012.5 hPa Este 11.1 km/h 20.9 km/h 68% 0.0 mm
15:59 18.2 °C 12.4 °C 1012.5 hPa ESE 10.7 km/h 21.7 km/h 68.9% 0.0 mm
16:04 18.1 °C 12.3 °C 1012.6 hPa ESE 10.3 km/h 23.3 km/h 69% 0.0 mm
16:09 17.9 °C 12.3 °C 1012.6 hPa ESE 11 km/h 24.1 km/h 69.7% 0.0 mm
16:14 17.7 °C 12.3 °C 1012.6 hPa ESE 11.9 km/h 24.1 km/h 70.8% 0.0 mm
16:19 17.4 °C 12.5 °C 1012.7 hPa SE 13.5 km/h 24.1 km/h 73% 0.0 mm
16:24 17.2 °C 12.7 °C 1012.7 hPa SE 15.6 km/h 24.1 km/h 74.9% 0.6 mm
16:29 16.8 °C 12.9 °C 1012.7 hPa ESE 14.8 km/h 24.1 km/h 77.7% 1.1 mm
16:34 16.7 °C 13.1 °C 1012.7 hPa ESE 13.7 km/h 20.1 km/h 79.4% 1.6 mm
16:39 16.6 °C 13.3 °C 1012.6 hPa SE 12.9 km/h 20.9 km/h 81% 2.1 mm
16:44 16.6 °C 13.3 °C 1012.6 hPa ESE 11.9 km/h 22.5 km/h 80.7% 2.4 mm
16:49 16.7 °C 13.4 °C 1012.6 hPa ESE 11.6 km/h 22.5 km/h 81% 2.4 mm
16:54 16.8 °C 13.8 °C 1012.6 hPa Este 11.1 km/h 19.3 km/h 82.1% 2.4 mm
16:59 16.9 °C 13.4 °C 1012.6 hPa ESE 10.3 km/h 21.7 km/h 79.7% 2.4 mm
17:04 17.1 °C 13.1 °C 1012.7 hPa ESE 9.5 km/h 27.8 km/h 77.7% 2.4 mm
17:09 17.2 °C 13 °C 1012.7 hPa ESE 12.2 km/h 27.4 km/h 76.4% 2.4 mm
17:14 17.2 °C 12.8 °C 1012.7 hPa ESE 15.6 km/h 25.9 km/h 75.5% 2.4 mm
17:19 17.2 °C 12.8 °C 1012.7 hPa ESE 15.8 km/h 26.2 km/h 75.5% 2.4 mm
17:24 17.3 °C 12.9 °C 1012.7 hPa ESE 16.1 km/h 27.8 km/h 75.1% 2.1 mm
17:29 17.4 °C 12.8 °C 1012.7 hPa SE 16.1 km/h 28.6 km/h 74.3% 1.6 mm
17:34 17.4 °C 12.8 °C 1012.7 hPa ESE 16.1 km/h 29.6 km/h 74.2% 1.3 mm
17:39 17.4 °C 12.9 °C 1012.7 hPa ESE 16.9 km/h 31.7 km/h 74.6% 0.8 mm
17:44 17.4 °C 12.7 °C 1012.7 hPa ESE 18 km/h 32.2 km/h 73.9% 0.3 mm
17:49 17.3 °C 12.6 °C 1012.8 hPa ESE 17.3 km/h 30.6 km/h 73.9% 0.0 mm
17:54 17.3 °C 12.6 °C 1012.8 hPa ESE 16.4 km/h 31.7 km/h 74% 0.0 mm
17:59 17.2 °C 12.5 °C 1012.8 hPa ESE 17.4 km/h 32.2 km/h 73.8% 0.0 mm
18:04 17.3 °C 12.6 °C 1012.9 hPa ESE 18.4 km/h 29.6 km/h 73.7% 0.0 mm
18:09 17.4 °C 12.6 °C 1012.9 hPa SE 16.8 km/h 29 km/h 73.3% 0.0 mm
18:14 17.4 °C 12.4 °C 1012.9 hPa SE 14.8 km/h 27.8 km/h 72.7% 0.0 mm
18:19 17.4 °C 12.4 °C 1012.9 hPa SE 15.1 km/h 25.7 km/h 72.6% 0.0 mm
18:24 17.4 °C 12.3 °C 1012.9 hPa ESE 15.6 km/h 27.8 km/h 72.3% 0.0 mm
18:29 17.4 °C 12.3 °C 1012.9 hPa ESE 14.9 km/h 27.8 km/h 72% 0.0 mm
18:34 17.3 °C 12.2 °C 1012.9 hPa ESE 14 km/h 24.1 km/h 72% 0.0 mm
18:39 17.4 °C 12.4 °C 1012.9 hPa ESE 13.2 km/h 25.1 km/h 72.4% 0.0 mm
18:44 17.2 °C 12.1 °C 1012.9 hPa ESE 12.2 km/h 25.9 km/h 71.9% 0.0 mm
18:49 17 °C 11.9 °C 1013.0 hPa ESE 13.3 km/h 25.7 km/h 72.1% 0.0 mm
18:54 16.9 °C 12 °C 1013.0 hPa ESE 14.8 km/h 22.5 km/h 72.8% 0.0 mm
18:59 16.9 °C 11.8 °C 1013.0 hPa ESE 13 km/h 22.5 km/h 72% 0.0 mm
19:04 16.8 °C 11.7 °C 1013.1 hPa Este 11.1 km/h 22.5 km/h 72% 0.0 mm
19:09 16.8 °C 11.8 °C 1013.1 hPa Este 10.6 km/h 20.9 km/h 72.3% 0.0 mm
19:14 16.7 °C 11.6 °C 1013.1 hPa ESE 10 km/h 16.7 km/h 72% 0.0 mm
19:19 16.7 °C 11.7 °C 1013.3 hPa Este 9.4 km/h 16.1 km/h 72.5% 0.0 mm
19:24 16.6 °C 11.6 °C 1013.3 hPa ESE 8.7 km/h 11.9 km/h 72.1% 0.0 mm
19:29 16.4 °C 11.6 °C 1013.3 hPa ENE 7.7 km/h 14.5 km/h 73% 0.0 mm
19:34 16.4 °C 11.6 °C 1013.5 hPa ENE 6.5 km/h 15.6 km/h 73% 0.0 mm
19:39 16.4 °C 11.6 °C 1013.5 hPa Este 6.7 km/h 16.1 km/h 73.3% 0.0 mm
19:44 16.3 °C 11.5 °C 1013.5 hPa NE 6.9 km/h 16.7 km/h 73% 0.0 mm
19:49 16.2 °C 11.4 °C 1013.7 hPa NE 7.6 km/h 16.1 km/h 73% 0.0 mm
19:54 16.2 °C 11.3 °C 1013.7 hPa ENE 8.4 km/h 16.1 km/h 73% 0.0 mm
19:59 16.1 °C 11.3 °C 1013.7 hPa ENE 8.5 km/h 14.8 km/h 73% 0.0 mm
20:04 16.1 °C 11.2 °C 1013.8 hPa NE 8.7 km/h 13 km/h 73% 0.0 mm
20:09 16 °C 11.2 °C 1013.8 hPa NE 7.7 km/h 12.9 km/h 73% 0.0 mm
20:14 15.9 °C 11.1 °C 1013.8 hPa Este 6.5 km/h 11.9 km/h 73.2% 0.0 mm
20:19 15.9 °C 11.1 °C 1014.0 hPa ENE 6.5 km/h 11.3 km/h 73.3% 0.0 mm
20:24 15.9 °C 11.1 °C 1014.0 hPa ENE 6.5 km/h 14.8 km/h 73.3% 0.0 mm
20:29 15.8 °C 11.2 °C 1014.0 hPa Este 6.2 km/h 14.5 km/h 73.8% 0.0 mm
20:34 15.8 °C 11 °C 1014.2 hPa Este 5.8 km/h 11.1 km/h 73.3% 0.0 mm
20:39 15.8 °C 11 °C 1014.2 hPa Este 6.5 km/h 16.7 km/h 73.3% 0.0 mm
20:44 15.7 °C 10.9 °C 1014.2 hPa Este 7.6 km/h 18.5 km/h 73.1% 0.0 mm
20:49 15.7 °C 10.9 °C 1014.2 hPa ENE 8.4 km/h 19.3 km/h 73% 0.0 mm
20:54 15.7 °C 10.9 °C 1014.2 hPa NE 9.5 km/h 14.5 km/h 73% 0.0 mm
20:59 15.6 °C 10.8 °C 1014.2 hPa NNE 7.3 km/h 11.3 km/h 73% 0.0 mm
21:04 15.6 °C 11 °C 1014.4 hPa NE 5 km/h 11.3 km/h 74% 0.0 mm
21:09 15.5 °C 10.9 °C 1014.4 hPa NNE 5.3 km/h 14 km/h 74% 0.0 mm
21:14 15.4 °C 10.8 °C 1014.4 hPa NNE 5.8 km/h 14.8 km/h 74% 0.0 mm
21:19 15.3 °C 11 °C 1014.6 hPa NE 7 km/h 14.8 km/h 75.5% 0.0 mm
21:24 15.2 °C 11.2 °C 1014.6 hPa NE 8.7 km/h 14.8 km/h 77% 0.0 mm
21:29 15.1 °C 11.4 °C 1014.6 hPa NE 9.3 km/h 16.4 km/h 78.6% 0.0 mm
21:34 15.1 °C 11.5 °C 1014.8 hPa NE 10 km/h 16.7 km/h 79.1% 0.0 mm
21:39 15.1 °C 11.6 °C 1014.8 hPa NE 9.4 km/h 16.1 km/h 80% 0.0 mm
21:44 15 °C 11.6 °C 1014.8 hPa NE 8.7 km/h 13 km/h 80% 0.0 mm
21:49 15 °C 11.6 °C 1015.1 hPa NE 8.2 km/h 13 km/h 80.4% 0.0 mm
21:54 14.9 °C 11.7 °C 1015.1 hPa NE 7.6 km/h 13.7 km/h 81% 0.0 mm
21:59 14.9 °C 11.7 °C 1015.1 hPa NE 7.6 km/h 14.5 km/h 81% 0.0 mm
22:04 14.9 °C 11.7 °C 1015.3 hPa ENE 7.6 km/h 13 km/h 81% 0.0 mm
22:09 14.9 °C 11.7 °C 1015.3 hPa ENE 6.8 km/h 12.9 km/h 81.4% 0.0 mm
22:14 14.9 °C 11.8 °C 1015.3 hPa NE 5.8 km/h 9.7 km/h 82% 0.0 mm
22:19 14.8 °C 11.9 °C 1015.5 hPa NE 6.1 km/h 9.7 km/h 82.7% 0.0 mm
22:24 14.8 °C 12 °C 1015.5 hPa NE 6.5 km/h 11.1 km/h 83.1% 0.0 mm
22:29 14.8 °C 12.1 °C 1015.5 hPa NE 6.5 km/h 11.3 km/h 84% 0.0 mm
22:34 14.7 °C 12.2 °C 1015.6 hPa NE 6.5 km/h 11.3 km/h 84.6% 0.0 mm
22:39 14.7 °C 12.2 °C 1015.6 hPa NNE 6.5 km/h 10 km/h 85% 0.0 mm
22:44 14.6 °C 12.2 °C 1015.6 hPa NE 6.5 km/h 11.1 km/h 85.6% 0.0 mm
22:49 14.4 °C 12.1 °C 1015.7 hPa NE 6.7 km/h 11.3 km/h 86% 0.0 mm
22:54 14.4 °C 12.2 °C 1015.7 hPa NE 6.9 km/h 11.3 km/h 86.8% 0.0 mm
22:59 14.4 °C 12.2 °C 1015.7 hPa NNE 6.4 km/h 9.7 km/h 87% 0.0 mm
23:04 14.3 °C 12.2 °C 1015.8 hPa NNE 5.8 km/h 8.7 km/h 87% 0.0 mm
23:09 14.3 °C 12.2 °C 1015.8 hPa NNE 5.3 km/h 8.4 km/h 87% 0.0 mm
23:14 14.3 °C 12.3 °C 1015.8 hPa NE 4.7 km/h 11.1 km/h 88% 0.0 mm
23:19 14.2 °C 12.2 °C 1015.8 hPa NE 5.4 km/h 11.3 km/h 88% 0.0 mm
23:24 14.2 °C 12.2 °C 1015.8 hPa NE 6.5 km/h 14.8 km/h 88% 0.0 mm
23:29 14.2 °C 12.2 °C 1015.8 hPa NE 6.5 km/h 14.5 km/h 88% 0.0 mm
23:34 14.2 °C 12.2 °C 1015.8 hPa NE 6.5 km/h 9.7 km/h 88% 0.0 mm
23:39 14.2 °C 12.4 °C 1015.7 hPa NE 6.2 km/h 11.1 km/h 88.8% 0.0 mm
23:44 14.2 °C 12.4 °C 1015.7 hPa NE 5.8 km/h 11.3 km/h 89% 0.0 mm
23:49 14.2 °C 12.4 °C 1015.7 hPa NE 6 km/h 11.3 km/h 89% 0.0 mm
23:54 14.2 °C 12.4 °C 1015.6 hPa NE 6.5 km/h 8.7 km/h 89% 0.0 mm
23:59 14.1 °C 12.5 °C 1015.6 hPa NE 5.6 km/h 8 km/h 89.9% 0.0 mm
Murcia-Puente Tocinos, España
Compliments of Weather Underground - 3 mb

La estación de MeteoMurcia.com, publica sus datos en los siguientes proyectos:

Weather Underground PWS IMURCIAP2 Meteoclimatic www.awekas.at

W3Counter
Web Analytics